Time;durP1;ratioP1;P1;durP2;ratioP2;P2;SDS_P1;SDS_P2;PMS_P1;PMS_P2;Temp;Humidity;BMP_temperature;BMP_pressure;BME280_temperature;BME280_humidity;BME280_pressure;Samples;Min_cycle;Max_cycle;Signal;HPM_P1;HPM_P2
2021/12/22 00:01:09;;;;;;;;;;;-4.20;99.90;;;;;;5146259;27;19919;-70
2021/12/22 00:03:35;;;;;;;;;;;-4.20;99.90;;;;;;5165788;27;19919;-71
2021/12/22 00:06:03;;;;;;;;;;;-4.20;99.90;;;;;;5166704;27;19919;-70
2021/12/22 00:08:30;;;;;;;;;;;-4.20;99.90;;;;;;5167073;27;19954;-71
2021/12/22 00:10:56;;;;;;;;;;;-4.20;99.90;;;;;;5166909;27;19919;-71
2021/12/22 00:13:23;;;;;;;;;;;-4.30;99.90;;;;;;5166931;27;20091;-71
2021/12/22 00:15:50;;;;;;;;;;;-4.30;99.90;;;;;;5161967;27;19925;-71
2021/12/22 00:18:16;;;;;;;;;;;-4.30;99.90;;;;;;5166172;27;19926;-70
2021/12/22 00:20:43;;;;;;;;;;;-4.30;99.90;;;;;;5165897;27;20122;-71
2021/12/22 00:23:11;;;;;;;;;;;-4.40;99.90;;;;;;5166643;27;19926;-70
2021/12/22 00:25:37;;;;;;;;;;;-4.40;99.90;;;;;;5165637;27;19925;-70
2021/12/22 00:28:04;;;;;;;;;;;-4.40;99.90;;;;;;5166742;27;19926;-70
2021/12/22 00:30:31;;;;;;;;;;;-4.40;99.90;;;;;;5166590;27;19919;-70
2021/12/22 00:33:03;;;;;;;;;;;-4.40;99.90;;;;;;5166593;27;19923;-70
2021/12/22 00:35:38;;;;;;;;;;;-4.40;99.90;;;;;;5164995;27;19919;-70
2021/12/22 00:38:04;;;;;;;;;;;-4.40;99.90;;;;;;5145405;27;19919;-70
2021/12/22 00:40:32;;;;;;;;;;;-4.40;99.90;;;;;;5144963;27;20249;-71
2021/12/22 00:42:59;;;;;;;;;;;-4.40;99.90;;;;;;5145702;27;19919;-71
2021/12/22 00:45:28;;;;;;;;;;;-4.50;99.90;;;;;;5144173;27;19920;-71
2021/12/22 00:47:54;;;;;;;;;;;-4.50;99.90;;;;;;5145344;27;19926;-70
2021/12/22 00:50:22;;;;;;;;;;;-4.50;99.90;;;;;;5158530;27;19982;-70
2021/12/22 00:52:48;;;;;;;;;;;-4.50;99.90;;;;;;5165407;27;19940;-70
2021/12/22 00:55:18;;;;;;;;;;;-4.50;99.90;;;;;;5165524;27;20144;-70
2021/12/22 00:57:47;;;;;;;;;;;-4.50;99.90;;;;;;5165595;27;20242;-71
2021/12/22 01:00:14;;;;;;;;;;;-4.50;99.90;;;;;;5165872;27;20144;-70
2021/12/22 01:02:41;;;;;;;;;;;-4.50;99.90;;;;;;5165828;27;19927;-70
2021/12/22 01:05:08;;;;;;;;;;;-4.50;99.90;;;;;;5165376;27;19919;-70
2021/12/22 01:07:34;;;;;;;;;;;-4.60;99.90;;;;;;5165897;27;19919;-70
2021/12/22 01:10:01;;;;;;;;;;;-4.50;99.90;;;;;;5165559;27;19926;-71
2021/12/22 01:12:28;;;;;;;;;;;-4.50;99.90;;;;;;5164884;27;20373;-70
2021/12/22 01:14:56;;;;;;;;;;;-4.50;99.90;;;;;;5164976;27;19925;-70
2021/12/22 01:17:23;;;;;;;;;;;-4.60;99.90;;;;;;5165626;27;20218;-70
2021/12/22 01:19:58;;;;;;;;;;;-4.60;99.90;;;;;;5165591;27;19934;-70
2021/12/22 01:22:31;;;;;;;;;;;-4.70;99.90;;;;;;5165778;27;19954;-70
2021/12/22 01:25:03;;;;;;;;;;;-4.70;99.90;;;;;;5165069;27;19978;-70
2021/12/22 01:27:33;;;;;;;;;;;-4.70;99.90;;;;;;5165606;27;20287;-70
2021/12/22 01:30:02;;;;;;;;;;;-4.70;99.90;;;;;;5163464;27;19954;-70
2021/12/22 01:32:28;;;;;;;;;;;-4.70;99.90;;;;;;5169117;27;20280;-70
2021/12/22 01:34:55;;;;;;;;;;;-4.70;99.90;;;;;;5168627;27;19923;-70
2021/12/22 01:37:22;;;;;;;;;;;-4.70;99.90;;;;;;5169621;27;19925;-70
2021/12/22 01:39:48;;;;;;;;;;;-4.80;99.90;;;;;;5169973;27;19923;-71
2021/12/22 01:42:15;;;;;;;;;;;-4.80;99.90;;;;;;5169248;27;19926;-70
2021/12/22 01:44:59;;;;;;;;;;;-4.80;99.90;;;;;;5168678;27;19919;-70
2021/12/22 01:50:16;;;;;;;;;;;-4.80;99.90;;;;;;5169208;27;19925;-70
2021/12/22 01:52:43;;;;;;;;;;;-4.90;99.90;;;;;;5161385;27;19919;-70
2021/12/22 01:55:14;;;;;;;;;;;-4.90;99.90;;;;;;5148141;27;20088;-70
2021/12/22 01:57:45;;;;;;;;;;;-4.90;99.90;;;;;;5148812;27;20221;-70
2021/12/22 02:00:12;;;;;;;;;;;-4.90;99.90;;;;;;5148594;27;19926;-70
2021/12/22 02:02:40;;;;;;;;;;;-4.90;99.90;;;;;;5150077;27;20215;-70
2021/12/22 02:05:07;;;;;;;;;;;-4.90;99.90;;;;;;5147662;27;19925;-70
2021/12/22 02:07:34;;;;;;;;;;;-4.90;99.90;;;;;;5148686;27;19919;-70
2021/12/22 02:10:10;;;;;;;;;;;-5.00;99.90;;;;;;5148159;27;19919;-70
2021/12/22 02:12:43;;;;;;;;;;;-5.00;99.90;;;;;;5148316;27;19991;-70
2021/12/22 02:15:10;;;;;;;;;;;-5.00;99.90;;;;;;5155065;27;19923;-70
2021/12/22 02:17:39;;;;;;;;;;;-5.00;99.90;;;;;;5168801;27;20260;-70
2021/12/22 02:20:08;;;;;;;;;;;-5.00;99.90;;;;;;5168414;27;19998;-70
2021/12/22 02:22:35;;;;;;;;;;;-4.90;99.90;;;;;;5169051;27;19954;-70
2021/12/22 02:25:11;;;;;;;;;;;-4.90;99.90;;;;;;5168115;27;19919;-71
2021/12/22 02:27:43;;;;;;;;;;;-4.90;99.90;;;;;;5168770;27;19926;-70
2021/12/22 02:30:16;;;;;;;;;;;-5.00;99.90;;;;;;5168618;27;20159;-70
2021/12/22 02:35:40;;;;;;;;;;;-5.10;99.90;;;;;;5156270;27;19926;-70
2021/12/22 02:38:13;;;;;;;;;;;-5.10;99.90;;;;;;5168506;27;20206;-70
2021/12/22 02:40:40;;;;;;;;;;;-5.10;99.90;;;;;;5152183;27;19925;-69
2021/12/22 02:43:06;;;;;;;;;;;-5.10;99.90;;;;;;5148033;27;19919;-70
2021/12/22 02:45:34;;;;;;;;;;;-5.00;99.90;;;;;;5147179;27;19941;-70
2021/12/22 02:48:01;;;;;;;;;;;-5.00;99.90;;;;;;5147542;27;19927;-68
2021/12/22 02:50:29;;;;;;;;;;;-5.00;99.90;;;;;;5147595;27;19920;-70
2021/12/22 02:53:04;;;;;;;;;;;-5.00;99.90;;;;;;5147430;27;19926;-70
2021/12/22 02:55:42;;;;;;;;;;;-5.00;99.90;;;;;;5156412;27;19922;-70
2021/12/22 02:58:10;;;;;;;;;;;-5.00;99.90;;;;;;5167725;27;19919;-70
2021/12/22 03:00:48;;;;;;;;;;;-5.00;99.90;;;;;;5167966;27;19987;-70
2021/12/22 03:03:28;;;;;;;;;;;-5.00;99.90;;;;;;5167550;27;19926;-70
2021/12/22 03:05:57;;;;;;;;;;;-5.00;99.90;;;;;;5167520;27;19969;-70
2021/12/22 03:08:24;;;;;;;;;;;-5.10;99.90;;;;;;5167726;27;19927;-70
2021/12/22 03:10:53;;;;;;;;;;;-5.10;99.90;;;;;;5168011;27;19926;-70
2021/12/22 03:13:20;;;;;;;;;;;-5.10;99.90;;;;;;5167428;27;20108;-68
2021/12/22 03:15:47;;;;;;;;;;;-5.20;99.90;;;;;;5163852;27;19926;-70
2021/12/22 03:18:14;;;;;;;;;;;-5.20;99.90;;;;;;5167482;27;19925;-70
2021/12/22 03:20:41;;;;;;;;;;;-5.20;99.90;;;;;;5147149;27;19923;-70
2021/12/22 03:23:09;;;;;;;;;;;-5.20;99.90;;;;;;5158326;27;20251;-70
2021/12/22 03:25:37;;;;;;;;;;;-5.20;99.90;;;;;;5166999;27;19919;-70
2021/12/22 03:28:04;;;;;;;;;;;-5.20;99.90;;;;;;5166881;27;20215;-68
2021/12/22 03:30:31;;;;;;;;;;;-5.20;99.90;;;;;;5167057;27;19919;-70
2021/12/22 03:32:58;;;;;;;;;;;-5.30;99.90;;;;;;5167150;27;20117;-70
2021/12/22 03:35:24;;;;;;;;;;;-5.30;99.90;;;;;;5166741;27;19919;-70
2021/12/22 03:37:52;;;;;;;;;;;-5.20;99.90;;;;;;5167283;27;19919;-70
2021/12/22 03:40:20;;;;;;;;;;;-5.30;99.90;;;;;;5166878;27;19985;-70
2021/12/22 03:42:47;;;;;;;;;;;-5.30;99.90;;;;;;5166696;27;19927;-69
2021/12/22 03:45:14;;;;;;;;;;;-5.40;99.90;;;;;;5166666;27;19919;-70
2021/12/22 03:47:40;;;;;;;;;;;-5.30;99.90;;;;;;5166770;27;19919;-70
2021/12/22 03:50:08;;;;;;;;;;;-5.40;99.90;;;;;;5151699;27;20110;-70
2021/12/22 03:52:35;;;;;;;;;;;-5.40;99.90;;;;;;5146624;27;19974;-70
2021/12/22 03:55:01;;;;;;;;;;;-5.40;99.90;;;;;;5148763;27;19919;-70
2021/12/22 03:57:29;;;;;;;;;;;-5.40;99.90;;;;;;5167107;27;19919;-70
2021/12/22 03:59:58;;;;;;;;;;;-5.40;99.90;;;;;;5166966;27;19925;-70
2021/12/22 04:02:24;;;;;;;;;;;-5.40;99.90;;;;;;5165751;27;19919;-70
2021/12/22 04:04:51;;;;;;;;;;;-5.40;99.90;;;;;;5166461;27;19919;-70
2021/12/22 04:07:18;;;;;;;;;;;-5.40;99.90;;;;;;5167227;27;19925;-70
2021/12/22 04:09:44;;;;;;;;;;;-5.40;99.90;;;;;;5166948;27;19925;-70
2021/12/22 04:12:11;;;;;;;;;;;-5.50;99.90;;;;;;5166480;27;19919;-70
2021/12/22 04:14:40;;;;;;;;;;;-5.40;99.90;;;;;;5164930;27;20198;-70
2021/12/22 04:17:07;;;;;;;;;;;-5.40;99.90;;;;;;5166919;27;19919;-70
2021/12/22 04:19:34;;;;;;;;;;;-5.40;99.90;;;;;;5156552;27;20233;-69
2021/12/22 04:22:02;;;;;;;;;;;-5.40;99.90;;;;;;5147652;27;19920;-70
2021/12/22 04:24:29;;;;;;;;;;;-5.40;99.90;;;;;;5145342;27;19942;-70
2021/12/22 04:26:56;;;;;;;;;;;-5.40;99.90;;;;;;5145768;27;19927;-70
2021/12/22 04:29:22;;;;;;;;;;;-5.40;99.90;;;;;;5145723;27;20110;-70
2021/12/22 04:31:50;;;;;;;;;;;-5.40;99.90;;;;;;5145961;27;19928;-70
2021/12/22 04:34:17;;;;;;;;;;;-5.40;99.90;;;;;;5164933;27;20214;-70
2021/12/22 04:36:43;;;;;;;;;;;-5.50;99.90;;;;;;5166345;27;19926;-70
2021/12/22 04:39:11;;;;;;;;;;;-5.50;99.90;;;;;;5165919;27;19986;-70
2021/12/22 04:41:38;;;;;;;;;;;-5.50;99.90;;;;;;5173994;22;19926;-71
2021/12/22 04:44:05;;;;;;;;;;;-5.50;99.90;;;;;;5116244;28;20137;-71
2021/12/22 04:46:31;;;;;;;;;;;-5.50;99.90;;;;;;5124989;28;19926;-71
2021/12/22 04:48:59;;;;;;;;;;;-5.40;99.90;;;;;;5120905;28;20266;-71
2021/12/22 04:51:29;;;;;;;;;;;-5.40;99.90;;;;;;5104382;28;19987;-71
2021/12/22 04:54:02;;;;;;;;;;;-5.40;99.90;;;;;;5102369;28;19983;-71
2021/12/22 04:56:29;;;;;;;;;;;-5.40;99.90;;;;;;5104011;28;19966;-72
2021/12/22 04:58:55;;;;;;;;;;;-5.30;99.90;;;;;;5104257;28;19923;-72
2021/12/22 05:01:22;;;;;;;;;;;-5.40;99.90;;;;;;5103842;28;19927;-72
2021/12/22 05:03:48;;;;;;;;;;;-5.40;99.90;;;;;;5103177;28;19928;-72
2021/12/22 05:06:16;;;;;;;;;;;-5.40;99.90;;;;;;5103268;28;19920;-71
2021/12/22 05:08:43;;;;;;;;;;;-5.40;99.90;;;;;;5104232;28;19926;-70
2021/12/22 05:11:09;;;;;;;;;;;-5.40;99.90;;;;;;5104017;28;20053;-72
2021/12/22 05:13:36;;;;;;;;;;;-5.50;99.90;;;;;;5100306;28;19924;-72
2021/12/22 05:16:05;;;;;;;;;;;-5.40;99.90;;;;;;5088992;28;19920;-72
2021/12/22 05:18:49;;;;;;;;;;;-5.40;99.90;;;;;;5083808;28;19920;-72
2021/12/22 05:21:20;;;;;;;;;;;-5.40;99.90;;;;;;5090765;28;19943;-72
2021/12/22 05:23:53;;;;;;;;;;;-5.40;99.90;;;;;;5096179;28;21256;-71
2021/12/22 05:26:19;;;;;;;;;;;-5.40;99.90;;;;;;5102710;28;19957;-70
2021/12/22 05:28:46;;;;;;;;;;;-5.50;99.90;;;;;;5103448;28;19920;-71
2021/12/22 05:31:12;;;;;;;;;;;-5.50;99.90;;;;;;5103504;28;20203;-71
2021/12/22 05:33:39;;;;;;;;;;;-5.50;99.90;;;;;;5102676;28;19920;-71
2021/12/22 05:36:06;;;;;;;;;;;-5.60;99.90;;;;;;5103766;28;19927;-70
2021/12/22 05:38:34;;;;;;;;;;;-5.50;99.90;;;;;;5086422;28;19921;-71
2021/12/22 05:41:00;;;;;;;;;;;-5.50;99.90;;;;;;5083231;28;19920;-70
2021/12/22 05:43:27;;;;;;;;;;;-5.50;99.90;;;;;;5087222;28;19920;-70
2021/12/22 05:45:54;;;;;;;;;;;-5.50;99.90;;;;;;5088978;28;19926;-70
2021/12/22 05:48:21;;;;;;;;;;;-5.60;99.90;;;;;;5103614;28;20180;-71
2021/12/22 05:50:51;;;;;;;;;;;-5.60;99.90;;;;;;5103611;28;19930;-71
2021/12/22 05:53:17;;;;;;;;;;;-5.60;99.90;;;;;;5093254;28;19920;-69
2021/12/22 05:55:45;;;;;;;;;;;-5.60;99.90;;;;;;5082462;28;19920;-69
2021/12/22 05:58:12;;;;;;;;;;;-5.60;99.90;;;;;;5083387;28;19920;-69
2021/12/22 06:00:38;;;;;;;;;;;-5.60;99.90;;;;;;5083478;28;19921;-69
2021/12/22 06:03:05;;;;;;;;;;;-5.50;99.90;;;;;;5083070;28;19920;-69
2021/12/22 06:05:31;;;;;;;;;;;-5.50;99.90;;;;;;5082637;28;19927;-69
2021/12/22 06:07:59;;;;;;;;;;;-5.50;99.90;;;;;;5083149;28;20233;-69
2021/12/22 06:10:25;;;;;;;;;;;-5.50;99.90;;;;;;5083120;28;19921;-69
2021/12/22 06:12:53;;;;;;;;;;;-5.50;99.90;;;;;;5095936;28;19920;-68
2021/12/22 06:15:20;;;;;;;;;;;-5.50;99.90;;;;;;5101729;28;19921;-70
2021/12/22 06:17:48;;;;;;;;;;;-5.50;99.90;;;;;;5105461;28;19928;-73
2021/12/22 06:20:15;;;;;;;;;;;-5.60;99.90;;;;;;5107198;28;19973;-71
2021/12/22 06:22:42;;;;;;;;;;;-5.60;99.90;;;;;;5106561;28;19942;-70
2021/12/22 06:25:08;;;;;;;;;;;-5.70;99.90;;;;;;5106166;28;19920;-70
2021/12/22 06:27:35;;;;;;;;;;;-5.70;99.90;;;;;;5107033;28;19920;-69
2021/12/22 06:30:03;;;;;;;;;;;-5.70;99.90;;;;;;5107151;28;20201;-72
2021/12/22 06:32:30;;;;;;;;;;;-5.70;99.90;;;;;;5103549;28;20212;-70
2021/12/22 06:34:57;;;;;;;;;;;-5.70;99.90;;;;;;5106018;28;19920;-69
2021/12/22 06:37:23;;;;;;;;;;;-5.70;99.90;;;;;;5106826;28;19920;-67
2021/12/22 06:39:50;;;;;;;;;;;-5.60;99.90;;;;;;5106749;28;19927;-69
2021/12/22 06:42:17;;;;;;;;;;;-5.60;99.90;;;;;;5102967;28;19926;-70
2021/12/22 06:44:43;;;;;;;;;;;-5.60;99.90;;;;;;5084896;28;19920;-70
2021/12/22 06:47:11;;;;;;;;;;;-5.60;99.90;;;;;;5086572;28;20115;-69
2021/12/22 06:49:38;;;;;;;;;;;-5.60;99.90;;;;;;5086389;28;19927;-69
2021/12/22 06:52:05;;;;;;;;;;;-5.60;99.90;;;;;;5086281;28;19920;-70
2021/12/22 06:54:32;;;;;;;;;;;-5.70;99.90;;;;;;5086230;28;20233;-69
2021/12/22 06:56:58;;;;;;;;;;;-5.70;99.90;;;;;;5106655;28;20119;-69
2021/12/22 06:59:25;;;;;;;;;;;-5.60;99.90;;;;;;5104152;28;19928;-69
2021/12/22 07:01:51;;;;;;;;;;;-5.60;99.90;;;;;;5104855;28;19991;-70
2021/12/22 07:04:19;;;;;;;;;;;-5.60;99.90;;;;;;5101698;28;19920;-68
2021/12/22 07:06:47;;;;;;;;;;;-5.60;99.90;;;;;;5105314;28;19920;-68
2021/12/22 07:09:13;;;;;;;;;;;-5.60;99.90;;;;;;5106440;28;19920;-68
2021/12/22 07:11:40;;;;;;;;;;;-5.70;99.90;;;;;;5106798;28;19920;-68
2021/12/22 07:14:08;;;;;;;;;;;-5.70;99.90;;;;;;5106449;28;19927;-68
2021/12/22 07:16:34;;;;;;;;;;;-5.70;99.90;;;;;;5105006;28;20208;-67
2021/12/22 07:19:02;;;;;;;;;;;-5.70;99.90;;;;;;5105278;28;19930;-68
2021/12/22 07:21:31;;;;;;;;;;;-5.70;99.90;;;;;;5106690;28;19920;-68
2021/12/22 07:23:57;;;;;;;;;;;-5.70;99.90;;;;;;5105906;28;19920;-68
2021/12/22 07:26:24;;;;;;;;;;;-5.80;99.90;;;;;;5106013;28;19920;-68
2021/12/22 07:28:50;;;;;;;;;;;-5.90;99.90;;;;;;5105513;28;19920;-68
2021/12/22 07:31:17;;;;;;;;;;;-5.90;99.90;;;;;;5104594;28;19926;-68
2021/12/22 07:33:47;;;;;;;;;;;-5.90;99.90;;;;;;5104568;28;19927;-69
2021/12/22 07:36:14;;;;;;;;;;;-5.80;99.90;;;;;;5104357;28;19920;-68
2021/12/22 07:38:52;;;;;;;;;;;-5.90;99.90;;;;;;5104171;28;19920;-69
2021/12/22 07:41:18;;;;;;;;;;;-5.90;99.90;;;;;;5087896;28;20107;-69
2021/12/22 07:43:45;;;;;;;;;;;-6.00;99.90;;;;;;5093888;28;19927;-69
2021/12/22 07:46:11;;;;;;;;;;;-6.00;99.90;;;;;;5105375;28;19999;-69
2021/12/22 07:48:38;;;;;;;;;;;-5.90;99.90;;;;;;5105473;28;19920;-69
2021/12/22 07:51:05;;;;;;;;;;;-5.90;99.90;;;;;;5104995;28;19920;-69
2021/12/22 07:53:32;;;;;;;;;;;-5.90;99.90;;;;;;5095430;28;19920;-66
2021/12/22 07:56:00;;;;;;;;;;;-5.90;99.90;;;;;;5095775;28;19927;-69
2021/12/22 07:58:27;;;;;;;;;;;-5.90;99.90;;;;;;5098586;28;20131;-69
2021/12/22 08:00:55;;;;;;;;;;;-5.90;99.90;;;;;;5085450;28;19920;-69
2021/12/22 08:03:22;;;;;;;;;;;-5.80;99.90;;;;;;5095228;28;19920;-68
2021/12/22 08:05:49;;;;;;;;;;;-5.80;99.90;;;;;;5090149;28;20212;-70
2021/12/22 08:08:17;;;;;;;;;;;-5.80;99.90;;;;;;5093882;28;19919;-70
2021/12/22 08:10:43;;;;;;;;;;;-5.70;99.90;;;;;;5098539;28;19920;-70
2021/12/22 08:13:11;;;;;;;;;;;-5.70;99.90;;;;;;5093464;28;19924;-68
2021/12/22 08:18:41;;;;;;;;;;;-5.70;99.90;;;;;;5104269;28;19914;-68
2021/12/22 08:21:07;;;;;;;;;;;-5.70;99.90;;;;;;5096758;28;19920;-68
2021/12/22 08:23:34;;;;;;;;;;;-5.70;99.90;;;;;;5087842;28;19959;-68
2021/12/22 08:26:00;;;;;;;;;;;-5.70;99.90;;;;;;5099370;28;20130;-69
2021/12/22 08:28:28;;;;;;;;;;;-5.70;99.90;;;;;;5098663;28;20125;-68
2021/12/22 08:30:55;;;;;;;;;;;-5.70;99.90;;;;;;5089736;28;19924;-68
2021/12/22 08:33:25;;;;;;;;;;;-5.70;99.90;;;;;;5103883;28;20114;-68
2021/12/22 08:38:53;;;;;;;;;;;-5.60;99.90;;;;;;5104415;28;19987;-68
2021/12/22 08:41:20;;;;;;;;;;;-5.60;99.90;;;;;;5104540;28;19927;-68
2021/12/22 08:43:48;;;;;;;;;;;-5.50;99.90;;;;;;5104118;28;20126;-70
2021/12/22 08:46:15;;;;;;;;;;;-5.50;99.90;;;;;;5104410;28;19920;-70
2021/12/22 08:48:42;;;;;;;;;;;-5.40;99.90;;;;;;5104623;28;19927;-68
2021/12/22 08:51:08;;;;;;;;;;;-5.40;99.90;;;;;;5104037;28;19920;-68
2021/12/22 08:53:35;;;;;;;;;;;-5.30;99.90;;;;;;5103055;28;19927;-69
2021/12/22 08:56:02;;;;;;;;;;;-5.30;99.90;;;;;;5090423;28;19921;-68
2021/12/22 08:58:28;;;;;;;;;;;-5.20;99.90;;;;;;5104243;28;20207;-68
2021/12/22 09:00:56;;;;;;;;;;;-5.20;99.90;;;;;;5099792;28;19927;-68
2021/12/22 09:03:23;;;;;;;;;;;-5.10;99.90;;;;;;5083835;28;19927;-71
2021/12/22 09:05:49;;;;;;;;;;;-5.10;99.90;;;;;;5083129;28;19943;-71
2021/12/22 09:08:16;;;;;;;;;;;-5.00;99.90;;;;;;5083680;28;19920;-68
2021/12/22 09:10:43;;;;;;;;;;;-5.00;99.90;;;;;;5095272;28;19924;-69
2021/12/22 09:13:09;;;;;;;;;;;-5.00;99.90;;;;;;5103936;28;19920;-68
2021/12/22 09:16:07;;;;;;;;;;;-4.90;99.90;;;;;;5102010;28;20211;-68
2021/12/22 09:18:35;;;;;;;;;;;-4.80;99.90;;;;;;5104083;28;20234;-71
2021/12/22 09:21:03;;;;;;;;;;;-4.80;99.90;;;;;;5104117;28;19987;-68
2021/12/22 09:23:30;;;;;;;;;;;-4.70;99.90;;;;;;5103940;28;19989;-74
2021/12/22 09:25:56;;;;;;;;;;;-4.60;99.90;;;;;;5089551;28;20226;-69
2021/12/22 09:28:23;;;;;;;;;;;-4.60;99.90;;;;;;5083902;28;19920;-68
2021/12/22 09:30:50;;;;;;;;;;;-4.60;99.90;;;;;;5083560;28;20200;-68
2021/12/22 09:33:18;;;;;;;;;;;-4.50;99.90;;;;;;5083969;28;19943;-69
2021/12/22 09:35:47;;;;;;;;;;;-4.40;99.90;;;;;;5082802;28;19962;-68
2021/12/22 09:38:14;;;;;;;;;;;-4.40;99.90;;;;;;5083572;28;19927;-68
2021/12/22 09:40:41;;;;;;;;;;;-4.30;99.90;;;;;;5083685;28;19931;-69
2021/12/22 09:43:08;;;;;;;;;;;-4.30;99.90;;;;;;5083258;28;19920;-68
2021/12/22 09:45:37;;;;;;;;;;;-4.30;99.90;;;;;;5083061;28;19921;-70
2021/12/22 09:48:24;;;;;;;;;;;-4.20;99.90;;;;;;5083773;28;19920;-69
2021/12/22 09:50:55;;;;;;;;;;;-4.20;99.90;;;;;;5083398;28;19963;-68
2021/12/22 09:53:23;;;;;;;;;;;-4.10;99.90;;;;;;5086564;28;19962;-68
2021/12/22 09:55:49;;;;;;;;;;;-4.00;99.90;;;;;;5104646;28;19920;-69
2021/12/22 09:58:16;;;;;;;;;;;-4.00;99.90;;;;;;5107923;28;19926;-68
2021/12/22 10:00:43;;;;;;;;;;;-3.90;99.90;;;;;;5107556;28;20361;-68
2021/12/22 10:03:10;;;;;;;;;;;-3.70;99.90;;;;;;5107732;28;19927;-68
2021/12/22 10:05:37;;;;;;;;;;;-3.60;99.90;;;;;;5106973;28;20146;-70
2021/12/22 10:08:06;;;;;;;;;;;-3.60;99.90;;;;;;5107005;28;19926;-68
2021/12/22 10:10:33;;;;;;;;;;;-3.50;99.90;;;;;;5107737;28;19951;-69
2021/12/22 10:13:04;;;;;;;;;;;-3.50;99.90;;;;;;5107081;28;19987;-69
2021/12/22 10:18:29;;;;;;;;;;;-3.40;99.90;;;;;;5086898;28;20010;-68
2021/12/22 10:21:08;;;;;;;;;;;-3.40;99.90;;;;;;5087066;28;19925;-68
2021/12/22 10:23:36;;;;;;;;;;;-3.30;99.90;;;;;;5089543;28;19984;-69
2021/12/22 10:26:04;;;;;;;;;;;-3.20;99.90;;;;;;5107227;28;19920;-68
2021/12/22 10:28:32;;;;;;;;;;;-3.10;99.90;;;;;;5107414;28;19927;-68
2021/12/22 10:31:01;;;;;;;;;;;-2.90;99.90;;;;;;5107238;28;19924;-68
2021/12/22 10:33:28;;;;;;;;;;;-2.80;99.90;;;;;;5107153;28;19920;-75
2021/12/22 10:35:56;;;;;;;;;;;-2.60;99.90;;;;;;5106566;28;19928;-68
2021/12/22 10:38:24;;;;;;;;;;;-2.50;99.90;;;;;;5107237;28;19920;-69
2021/12/22 10:40:53;;;;;;;;;;;-2.30;99.90;;;;;;5106574;28;19924;-68
2021/12/22 10:43:20;;;;;;;;;;;-2.10;99.90;;;;;;5151952;22;19926;-71
2021/12/22 10:45:50;;;;;;;;;;;-2.00;99.90;;;;;;5136485;27;19941;-73
2021/12/22 10:51:00;;;;;;;;;;;-1.70;99.90;;;;;;5135524;27;20141;-75
2021/12/22 10:53:27;;;;;;;;;;;-1.60;99.90;;;;;;5147221;27;19919;-73
2021/12/22 10:55:57;;;;;;;;;;;-1.40;99.90;;;;;;5144089;27;20202;-73
2021/12/22 10:58:25;;;;;;;;;;;-1.20;99.90;;;;;;5143828;27;19919;-75
2021/12/22 11:01:03;;;;;;;;;;;-1.00;99.90;;;;;;5147513;27;19919;-74
2021/12/22 11:03:39;;;;;;;;;;;-0.80;99.90;;;;;;5144992;27;19934;-73
2021/12/22 11:06:10;;;;;;;;;;;-0.60;99.90;;;;;;5147103;27;19923;-74
2021/12/22 11:08:38;;;;;;;;;;;-0.40;99.90;;;;;;5147195;27;19942;-73
2021/12/22 11:11:13;;;;;;;;;;;-0.10;99.90;;;;;;5147269;27;20000;-71
2021/12/22 11:13:40;;;;;;;;;;;0.00;99.90;;;;;;5145103;27;19926;-73
2021/12/22 11:16:11;;;;;;;;;;;0.30;99.90;;;;;;5146976;27;19919;-73
2021/12/22 11:18:37;;;;;;;;;;;0.40;99.90;;;;;;5147254;27;20210;-73
2021/12/22 11:21:08;;;;;;;;;;;0.50;99.90;;;;;;5147197;27;19920;-73
2021/12/22 11:23:34;;;;;;;;;;;0.60;99.90;;;;;;5145916;27;19920;-74
2021/12/22 11:26:01;;;;;;;;;;;0.80;99.90;;;;;;5146146;27;19928;-73
2021/12/22 11:28:29;;;;;;;;;;;0.90;99.90;;;;;;5145973;27;19919;-71
2021/12/22 11:30:56;;;;;;;;;;;1.10;99.90;;;;;;5145781;27;19919;-71
2021/12/22 11:33:23;;;;;;;;;;;1.20;99.90;;;;;;5124861;28;19924;-71
2021/12/22 11:35:50;;;;;;;;;;;1.30;99.90;;;;;;5125035;28;19919;-70
2021/12/22 11:38:17;;;;;;;;;;;1.40;99.90;;;;;;5124693;28;19962;-71
2021/12/22 11:40:53;;;;;;;;;;;1.50;99.90;;;;;;5131759;27;20350;-74
2021/12/22 11:43:20;;;;;;;;;;;1.50;99.90;;;;;;5145072;27;19941;-73
2021/12/22 11:45:48;;;;;;;;;;;1.60;99.90;;;;;;5131406;27;19920;-74
2021/12/22 11:48:15;;;;;;;;;;;1.70;99.90;;;;;;5126426;28;20110;-74
2021/12/22 11:50:45;;;;;;;;;;;1.80;99.90;;;;;;5125920;28;19920;-74
2021/12/22 11:53:12;;;;;;;;;;;1.90;99.90;;;;;;5127499;27;19935;-74
2021/12/22 11:55:39;;;;;;;;;;;2.10;99.90;;;;;;5145497;27;19926;-74
2021/12/22 11:58:14;;;;;;;;;;;2.20;99.90;;;;;;5146456;27;19955;-74
2021/12/22 12:00:41;;;;;;;;;;;2.20;99.90;;;;;;5146032;27;19919;-74
2021/12/22 12:03:23;;;;;;;;;;;2.20;99.90;;;;;;5144929;27;19919;-73
2021/12/22 12:06:03;;;;;;;;;;;2.30;99.90;;;;;;5124883;28;19919;-74
2021/12/22 12:08:33;;;;;;;;;;;2.30;99.90;;;;;;5125422;28;19920;-74
2021/12/22 12:11:00;;;;;;;;;;;2.40;99.90;;;;;;5125886;28;19991;-75
2021/12/22 12:13:38;;;;;;;;;;;2.40;99.90;;;;;;5129014;27;19920;-74
2021/12/22 12:22:07;;;;;;;;;;;2.70;99.90;;;;;;5124517;28;19942;-75
2021/12/22 12:24:45;;;;;;;;;;;2.80;99.90;;;;;;5137323;27;20009;-75
2021/12/22 12:27:30;;;;;;;;;;;2.90;99.90;;;;;;5145413;27;19919;-75
2021/12/22 12:29:57;;;;;;;;;;;3.00;99.90;;;;;;5145145;27;19986;-75
2021/12/22 12:32:42;;;;;;;;;;;3.10;99.90;;;;;;5145582;27;19933;-74
2021/12/22 12:35:23;;;;;;;;;;;3.40;99.90;;;;;;5144436;27;19926;-74
2021/12/22 12:37:57;;;;;;;;;;;3.40;99.90;;;;;;5130083;27;19920;-74
2021/12/22 12:40:23;;;;;;;;;;;3.50;99.90;;;;;;5142161;27;19926;-74
2021/12/22 12:42:56;;;;;;;;;;;3.50;99.90;;;;;;5144308;27;19919;-75
2021/12/22 12:45:42;;;;;;;;;;;3.60;99.90;;;;;;5144151;27;19923;-75
2021/12/22 12:48:27;;;;;;;;;;;3.60;99.90;;;;;;5144446;27;19919;-75
2021/12/22 12:51:11;;;;;;;;;;;3.70;99.90;;;;;;5144749;27;19941;-72
2021/12/22 12:53:40;;;;;;;;;;;3.70;99.90;;;;;;5133283;27;19919;-75
2021/12/22 12:56:10;;;;;;;;;;;3.60;99.90;;;;;;5144169;27;21435;-75
2021/12/22 12:58:50;;;;;;;;;;;3.50;99.90;;;;;;5145306;27;19991;-72
2021/12/22 13:01:17;;;;;;;;;;;3.50;99.90;;;;;;5144982;27;19927;-75
2021/12/22 13:03:47;;;;;;;;;;;3.40;99.90;;;;;;5144234;27;19923;-75
2021/12/22 13:06:13;;;;;;;;;;;3.40;99.90;;;;;;5144852;27;19919;-75
2021/12/22 13:08:41;;;;;;;;;;;3.40;99.90;;;;;;5144661;27;19920;-74
2021/12/22 13:11:11;;;;;;;;;;;3.40;99.90;;;;;;5144182;27;19926;-75
2021/12/22 13:15:46;;;;;;;;;;;3.30;99.90;;;;;;5143869;27;19919;-75
2021/12/22 13:16:38;;;;;;;;;;;3.30;99.90;;;;;;5144858;27;19941;-75
2021/12/22 13:19:05;;;;;;;;;;;3.20;99.90;;;;;;5145282;27;19915;-75
2021/12/22 13:21:32;;;;;;;;;;;2.90;99.90;;;;;;5144552;27;20207;-75
2021/12/22 13:23:59;;;;;;;;;;;2.70;99.90;;;;;;5143150;27;19923;-72
2021/12/22 13:26:26;;;;;;;;;;;2.50;99.90;;;;;;5143102;27;20395;-74
2021/12/22 13:28:53;;;;;;;;;;;2.20;99.90;;;;;;5143807;27;19919;-72
2021/12/22 13:31:19;;;;;;;;;;;2.00;99.90;;;;;;5144268;28;19920;-74
2021/12/22 13:34:01;;;;;;;;;;;1.80;99.90;;;;;;5143468;28;19925;-74
2021/12/22 13:36:28;;;;;;;;;;;1.60;99.90;;;;;;5144759;28;19919;-73
2021/12/22 13:38:57;;;;;;;;;;;1.40;99.90;;;;;;5144834;28;20392;-75
2021/12/22 13:41:27;;;;;;;;;;;1.20;99.90;;;;;;5144254;28;19954;-74
2021/12/22 13:43:56;;;;;;;;;;;1.20;99.90;;;;;;5139021;28;20288;-75
2021/12/22 13:46:24;;;;;;;;;;;1.10;99.90;;;;;;5143846;27;19924;-73
2021/12/22 13:48:52;;;;;;;;;;;1.00;99.90;;;;;;5144756;27;19919;-74
2021/12/22 13:51:19;;;;;;;;;;;1.00;99.90;;;;;;5144656;27;19955;-75
2021/12/22 13:53:47;;;;;;;;;;;0.90;99.90;;;;;;5135364;27;19925;-75
2021/12/22 13:56:15;;;;;;;;;;;0.90;99.90;;;;;;5129462;28;19926;-75
2021/12/22 13:58:44;;;;;;;;;;;0.80;99.90;;;;;;5126718;28;19932;-75
2021/12/22 14:01:28;;;;;;;;;;;0.80;99.90;;;;;;5126769;28;19983;-75
2021/12/22 14:04:08;;;;;;;;;;;0.80;99.90;;;;;;5123574;28;20233;-75
2021/12/22 14:06:36;;;;;;;;;;;0.70;99.90;;;;;;5137464;28;19946;-75
2021/12/22 14:09:06;;;;;;;;;;;0.70;99.90;;;;;;5124905;28;20096;-75
2021/12/22 14:11:34;;;;;;;;;;;0.70;99.90;;;;;;5144090;28;19950;-75
2021/12/22 14:14:19;;;;;;;;;;;0.70;99.90;;;;;;5142971;28;19919;-75
2021/12/22 14:16:48;;;;;;;;;;;0.60;99.90;;;;;;5131343;27;19919;-75
2021/12/22 14:19:15;;;;;;;;;;;0.60;99.90;;;;;;5144339;28;19927;-75
2021/12/22 14:21:41;;;;;;;;;;;0.50;99.90;;;;;;5144029;28;20276;-74
2021/12/22 14:24:08;;;;;;;;;;;0.50;99.90;;;;;;5142680;28;19925;-75
2021/12/22 14:26:35;;;;;;;;;;;0.50;99.90;;;;;;5143474;28;19920;-75
2021/12/22 14:29:05;;;;;;;;;;;0.50;99.90;;;;;;5144045;28;19926;-73
2021/12/22 14:31:33;;;;;;;;;;;0.50;99.90;;;;;;5135729;28;19954;-72
2021/12/22 14:34:09;;;;;;;;;;;0.50;99.90;;;;;;5142388;28;19927;-72
2021/12/22 14:36:43;;;;;;;;;;;0.50;99.90;;;;;;5128981;28;20258;-73
2021/12/22 14:39:09;;;;;;;;;;;0.50;99.90;;;;;;5126787;28;19926;-73
2021/12/22 14:41:36;;;;;;;;;;;0.50;99.90;;;;;;5127099;28;20262;-73
2021/12/22 14:44:03;;;;;;;;;;;0.40;99.90;;;;;;5126214;28;19923;-73
2021/12/22 14:46:30;;;;;;;;;;;0.40;99.90;;;;;;5126245;27;19920;-73
2021/12/22 14:48:58;;;;;;;;;;;0.40;99.90;;;;;;5129772;27;19923;-74
2021/12/22 14:51:27;;;;;;;;;;;0.40;99.90;;;;;;5145530;27;20161;-73
2021/12/22 14:53:57;;;;;;;;;;;0.40;99.90;;;;;;5145499;27;19935;-73